Somerset, KY (42501)

6:05 AM EDT on August 27, 2016 (GMT -0400)
Wastewater plant | | Change Station

Elev 791 ft 37.04 °N, 84.60 °W | Updated 1 minute ago

Clear
Clear
70.2 °F
Feels Like 70.2 °F
N
0.0
Wind Variable Wind from South

Today
High -- | Low -- °F
--% Chance of Precip.
Yesterday
High -- | Low -- °F
Precip. -- in
Pressure 30.10 in
Visibility 7.0 miles
Clouds Clear
Dew Point 69 °F
Humidity 96%
Rainfall 0.00 in
Snow Depth Not available.
7:05 AM 8:13 PM
Waning Crescent, 26% visible
METAR KSME 270955Z AUTO 00000KT 7SM CLR 20/20 A3010 RMK AO2
Pressure 30.10 in
Visibility 7.0 miles
Clouds Clear
Dew Point 69 °F
Humidity 96%
Rainfall 0.00 in
Snow Depth Not available.
7:05 AM 8:13 PM
Waning Crescent, 26% visible
METAR KSME 270955Z AUTO 00000KT 7SM CLR 20/20 A3010 RMK AO2

10-Day Weather Forecast

Almanac

Astronomy

Aug. 27, 2016 Rise Set
Actual Time
Civil Twilight
Nautical Twilight
Astronomical Twilight
Moon
Length of Visible Light
Length of Day
Tomorrow will be .
, % of the Moon is Illuminated

Today's Extremes

State Highs State Lows

Community

WunderPhotos

Upload Photos

1,935,313 photos uploaded!

WunderBlog® & News

Nearby

Air Quality

  Air Quality AQ Index Pollutant
Not available.

Snow Depth

Station Depth Elevation

Earthquake Activity

City Distance Mag. Time & Date
Minimum magnitude displayed is 2.5.

Coastal Water Temperatures

Place Temperature

Stations

Nearby Weather Stations

Station Location Temp. Windchill Dew Point Humidity Wind Precip. Elev Updated Type
                   

Watches & Warnings

There are currently no watches in effect.